Estación Meteorológica Peña el Pijo (Robertgarden) [ 12/14/19 08:41:38 CET ]

Fecha Hora Presion(HPa) Temp (°C) Humedad % Rocio (°C) Viento ( m/s) Direccion Lluvia 1Hora(mm) Lluvia 24H(mm) LLuvia Total(mm)
2019-Aug-12 01:01:36 1011.500 19.4 36 3.8         363.34
2019-Aug-12 02:01:41 1010.900 19.6 35 3.6         363.34
2019-Aug-12 03:01:40 1010.500 19.8 33 3.0         363.34
2019-Aug-12 04:01:40 1010.000 18.4 33 1.8         363.34
2019-Aug-12 05:01:40 1009.800 16.1 38 1.7         363.34
2019-Aug-12 06:01:40 1009.700 14.9 43 2.4         363.34
2019-Aug-12 07:01:44 1010.100 13.7 47 2.5         363.34
2019-Aug-12 08:01:40 1010.300 12.8 53 3.4         363.34
2019-Aug-12 09:01:54 1010.700 19.6 44 7.0         363.34
2019-Aug-12 10:02:00 1010.700 21.8 34 5.2         363.34
2019-Aug-12 11:01:47 1011.000 24.8 29 5.5         363.34
2019-Aug-12 12:01:40 1011.000 26.3 25 4.5         363.34
2019-Aug-12 13:01:57 1010.700 29.4 23 5.9 0.5 WSW     363.34
2019-Aug-12 14:01:44 1010.100 30.8 21 5.9         363.34
2019-Aug-12 15:01:50 1010.000 31.6 19 5.0         363.34
2019-Aug-12 16:01:36 1009.500 31.3 21 6.3         363.34
2019-Aug-12 17:01:49 1008.900 32.9 16 3.1 0.7 N     363.34
2019-Aug-12 18:01:42 1008.700 33.0 16 3.2         363.34
2019-Aug-12 19:01:43 1008.300 30.3 25 7.8 3.3 SW     363.34
2019-Aug-12 20:02:00 1009.200 27.3 30 8.2         363.34
2019-Aug-12 21:01:39 1009.900 24.6 43 11.2         363.34
2019-Aug-12 22:02:01 1010.900 22.4 56 13.1         363.34
2019-Aug-12 23:01:41 1011.500 21.2 60 13.2         363.34

Temperatura Máxima:33°    Temperatura Mínima:12°
Presión Máxima:1011.500 Hpa    Presión Mínima:1008.300 Hpa


Volver